Queenstown, New Zealand
Current Conditions -  °F | °C
As of 9:00 PM on Sunday 26 Oct 2014 (Local Time) from NZCH Reporting Station
Overcast Overcast  
Wind Chill: 43°   Ceiling: 3900
Heat Index: 48°   Visibility: 6mi
Dew Point: 43°   Wind: 12mph
Humidity: 82%   Direction: 230°SW
Pressure: 29.8"   Gusts: NA
Location:  45.03°S, 168.66°E
Report Text: NZCH 260900Z AUTO 23010KT 9999 OVC039/// 09/06 Q1009 NOSIG
Loading
Personal Weather Stations






























Interactive Weather Map
Tropical Storm Tracking
New forecast layout! Learn more

10-Day Weather Forecast

Advertisements
Track Severe Weather on mobile